createdAt,value
2023-02-18T00:01:10.912Z,9.40
2023-02-18T00:02:44.234Z,9.30
2023-02-18T00:04:17.334Z,9.30
2023-02-18T00:05:50.417Z,9.30
2023-02-18T00:07:23.647Z,9.30
2023-02-18T00:08:58.784Z,9.30
2023-02-18T00:10:31.931Z,9.30
2023-02-18T00:12:05.340Z,9.30
2023-02-18T00:13:40.088Z,9.30
2023-02-18T00:15:13.386Z,9.30
2023-02-18T00:16:47.661Z,9.30
2023-02-18T00:18:20.738Z,9.20
2023-02-18T00:19:52.875Z,9.20
2023-02-18T00:21:26.462Z,9.20
2023-02-18T00:22:59.593Z,9.20
2023-02-18T00:24:32.643Z,9.20
2023-02-18T00:26:09.173Z,9.20
2023-02-18T00:27:42.514Z,9.20
2023-02-18T00:29:16.009Z,9.20
2023-02-18T00:30:49.095Z,9.30
2023-02-18T00:32:22.216Z,9.20
2023-02-18T00:33:55.050Z,9.20
2023-02-18T00:35:28.159Z,9.20
2023-02-18T00:37:01.260Z,9.20
2023-02-18T00:38:34.818Z,9.20
2023-02-18T00:40:09.316Z,9.20
2023-02-18T00:41:42.940Z,9.20
2023-02-18T00:43:15.987Z,9.20
2023-02-18T00:44:50.656Z,9.20
2023-02-18T00:46:25.167Z,9.10
2023-02-18T00:47:59.674Z,9.10
2023-02-18T00:49:32.739Z,9.10
2023-02-18T00:51:07.258Z,9.00
2023-02-18T00:52:40.413Z,9.00
2023-02-18T00:54:13.747Z,9.00
2023-02-18T00:55:47.867Z,9.00
2023-02-18T00:57:20.967Z,9.00
2023-02-18T00:58:55.880Z,9.00
2023-02-18T01:00:29.350Z,9.00
2023-02-18T01:02:02.578Z,8.90
2023-02-18T01:03:35.766Z,8.90
2023-02-18T01:05:09.116Z,8.90
2023-02-18T01:06:43.660Z,8.80
2023-02-18T01:08:17.649Z,8.80
2023-02-18T01:09:50.935Z,8.80
2023-02-18T01:11:24.332Z,8.70
2023-02-18T01:12:57.511Z,8.60
2023-02-18T01:14:30.806Z,8.50
2023-02-18T01:16:04.663Z,8.50
2023-02-18T01:17:37.882Z,8.40
2023-02-18T01:19:11.765Z,8.30
2023-02-18T01:20:45.878Z,8.20
2023-02-18T01:22:19.147Z,8.10
2023-02-18T01:23:52.200Z,8.10
2023-02-18T01:25:25.257Z,8.00
2023-02-18T01:26:58.501Z,7.90
2023-02-18T01:28:31.677Z,7.90
2023-02-18T01:30:05.797Z,8.00
2023-02-18T08:33:24.155Z,8.40
2023-02-18T08:34:58.649Z,8.50
2023-02-18T08:36:32.195Z,8.50
2023-02-18T08:38:05.319Z,8.40
2023-02-18T08:39:40.093Z,8.40
2023-02-18T08:41:14.481Z,8.40
2023-02-18T08:42:47.616Z,8.40
2023-02-18T08:44:20.731Z,8.50
2023-02-18T08:45:53.924Z,8.40
2023-02-18T08:48:18.808Z,8.40
2023-02-18T08:49:20.974Z,8.40
2023-02-18T08:50:55.428Z,8.50
2023-02-18T08:52:28.965Z,8.50
2023-02-18T08:54:02.038Z,8.60
2023-02-18T08:55:38.075Z,8.60
2023-02-18T08:57:11.142Z,8.50
2023-02-18T08:58:44.813Z,8.60
2023-02-18T09:00:18.816Z,8.60
2023-02-18T09:01:51.910Z,8.60
2023-02-18T09:03:24.982Z,8.60
2023-02-18T09:04:58.118Z,8.60
2023-02-18T09:06:32.660Z,8.60
2023-02-18T09:08:06.288Z,8.60
2023-02-18T09:09:39.348Z,8.60
2023-02-18T09:11:13.136Z,8.70
2023-02-18T09:12:46.295Z,8.70
2023-02-18T09:14:19.402Z,8.70
2023-02-18T09:16:00.173Z,8.70
2023-02-18T09:17:33.372Z,8.80
2023-02-18T09:19:06.754Z,8.90
2023-02-18T09:20:40.667Z,8.90
2023-02-18T09:22:15.812Z,8.90
2023-02-18T09:23:49.069Z,8.90
2023-02-18T09:25:22.585Z,8.90
2023-02-18T09:26:55.701Z,9.00
2023-02-18T09:28:29.010Z,9.00
2023-02-18T09:30:02.168Z,9.00
2023-02-18T09:31:35.408Z,9.00
2023-02-18T09:33:08.566Z,9.10
2023-02-18T09:34:41.700Z,9.10
2023-02-18T09:36:15.364Z,9.10
2023-02-18T09:37:49.922Z,9.10
2023-02-18T09:39:23.162Z,9.00
2023-02-18T09:40:56.798Z,9.00
2023-02-18T09:42:34.289Z,9.10
2023-02-18T09:44:13.824Z,9.10
2023-02-18T09:45:47.289Z,9.10
2023-02-18T09:47:25.635Z,9.10
2023-02-18T09:49:01.644Z,9.00
2023-02-18T09:50:35.251Z,9.10
2023-02-18T09:52:14.073Z,9.20
2023-02-18T09:53:49.024Z,9.30
2023-02-18T09:55:26.135Z,9.30
2023-02-18T09:57:00.430Z,9.30
2023-02-18T09:58:35.473Z,9.30
2023-02-18T10:00:14.563Z,9.30
2023-02-18T10:01:52.059Z,9.40
2023-02-18T10:03:27.478Z,9.50
2023-02-18T10:05:00.678Z,9.60
2023-02-18T10:06:35.874Z,9.70
2023-02-18T10:08:20.746Z,9.80
2023-02-18T10:09:56.443Z,10.00
2023-02-18T10:11:31.832Z,10.00
2023-02-18T10:13:06.162Z,10.20
2023-02-18T10:14:39.730Z,10.60
2023-02-18T10:16:19.392Z,11.00
2023-02-18T10:17:53.681Z,11.20
2023-02-18T10:19:31.096Z,11.20
2023-02-18T10:21:08.263Z,11.20
2023-02-18T10:22:41.978Z,11.20
2023-02-18T10:24:23.272Z,11.20
2023-02-18T10:25:59.995Z,11.20
2023-02-18T10:27:34.803Z,11.20
2023-02-18T10:29:14.762Z,11.20
2023-02-18T10:30:52.552Z,11.30
2023-02-18T10:32:28.501Z,11.30
2023-02-18T10:34:08.012Z,11.30
2023-02-18T10:35:47.758Z,11.40
2023-02-18T10:37:37.154Z,11.40
2023-02-18T10:39:33.727Z,11.50
2023-02-18T10:41:13.262Z,11.60
2023-02-18T10:42:56.681Z,11.60
2023-02-18T10:44:38.482Z,11.60
2023-02-18T10:46:23.323Z,11.60
2023-02-18T10:48:10.241Z,11.60
2023-02-18T10:49:58.699Z,11.60
2023-02-18T10:51:35.426Z,11.70
2023-02-18T10:53:14.911Z,11.70
2023-02-18T10:54:58.809Z,11.70
2023-02-18T10:56:40.353Z,11.80
2023-02-18T10:58:33.012Z,11.90
2023-02-18T11:00:18.895Z,11.90
2023-02-18T11:01:57.755Z,11.90
2023-02-18T11:03:42.425Z,12.10
2023-02-18T11:05:23.684Z,12.30
2023-02-18T11:06:57.042Z,12.50
2023-02-18T11:08:40.557Z,12.60
2023-02-18T11:10:19.297Z,12.60
2023-02-18T11:13:42.362Z,12.40
2023-02-18T11:15:21.198Z,12.40
2023-02-18T11:16:56.476Z,12.40
2023-02-18T11:18:40.207Z,12.50
2023-02-18T11:20:26.137Z,12.50
2023-02-18T11:22:09.702Z,12.70
2023-02-18T11:23:48.752Z,12.80
2023-02-18T11:25:24.028Z,12.80
2023-02-18T11:26:58.846Z,12.90
2023-02-18T11:28:41.348Z,12.90
2023-02-18T11:30:22.637Z,13.00
2023-02-18T11:31:58.449Z,13.10
2023-02-18T11:33:35.573Z,13.20
2023-02-18T11:35:18.245Z,13.20
2023-02-18T11:36:52.696Z,13.20
2023-02-18T11:38:29.772Z,13.00
2023-02-18T11:40:02.921Z,13.00
2023-02-18T11:41:38.279Z,12.90
2023-02-18T11:43:16.182Z,13.00
2023-02-18T11:44:55.085Z,12.90
2023-02-18T11:46:29.531Z,13.10
2023-02-18T11:48:07.393Z,13.10
2023-02-18T11:49:41.848Z,13.10
2023-02-18T11:51:20.936Z,13.10
2023-02-18T11:52:54.834Z,13.20
2023-02-18T11:54:30.266Z,13.20
2023-02-18T11:56:05.371Z,13.30
2023-02-18T11:57:40.530Z,13.30
2023-02-18T11:59:15.057Z,13.20
2023-02-18T12:00:51.473Z,13.30
2023-02-18T12:02:33.744Z,13.20
2023-02-18T12:04:13.092Z,13.00
2023-02-18T12:05:47.067Z,12.90
2023-02-18T12:07:24.990Z,12.80
2023-02-18T12:09:01.950Z,12.70
2023-02-18T12:10:39.381Z,12.70
2023-02-18T12:12:17.122Z,12.60
2023-02-18T12:13:54.551Z,12.60
2023-02-18T12:15:37.683Z,12.70
2023-02-18T12:17:41.926Z,12.60
2023-02-18T12:19:45.662Z,12.60
2023-02-18T12:21:34.419Z,12.50
2023-02-18T12:23:18.267Z,12.50
2023-02-18T12:25:04.868Z,12.40
2023-02-18T12:26:47.926Z,12.30
2023-02-18T12:28:32.768Z,12.30
2023-02-18T12:30:40.802Z,12.30
2023-02-18T12:32:37.053Z,12.30
2023-02-18T12:34:39.273Z,12.30
2023-02-18T12:36:25.895Z,12.40
2023-02-18T12:38:22.987Z,12.50
2023-02-18T12:40:11.112Z,12.60
2023-02-18T12:41:57.028Z,12.60
2023-02-18T12:43:44.660Z,12.70
2023-02-18T12:45:37.533Z,12.80
2023-02-18T12:47:40.550Z,12.90
2023-02-18T12:49:35.866Z,12.90
2023-02-18T12:51:28.247Z,12.50
2023-02-18T12:53:17.881Z,12.40
2023-02-18T12:55:31.972Z,12.20
2023-02-18T12:57:28.854Z,12.10
2023-02-18T12:59:12.676Z,12.00
2023-02-18T13:01:10.421Z,11.80
2023-02-18T13:03:09.272Z,11.60
2023-02-18T13:04:54.684Z,11.50
2023-02-18T13:06:43.486Z,11.50
2023-02-18T13:08:28.862Z,11.60
2023-02-18T13:10:45.405Z,11.80
2023-02-18T13:12:24.940Z,11.80
2023-02-18T13:14:04.266Z,11.80
2023-02-18T13:15:41.730Z,12.00
2023-02-18T13:17:19.097Z,11.90
2023-02-18T13:19:01.948Z,11.90
2023-02-18T13:20:41.248Z,11.80
2023-02-18T13:22:17.215Z,11.80
2023-02-18T13:23:54.151Z,11.80
2023-02-18T13:25:27.278Z,11.80
2023-02-18T13:27:10.362Z,11.80
2023-02-18T13:28:51.268Z,11.90
2023-02-18T13:30:29.146Z,12.00
2023-02-18T13:32:10.802Z,12.00
2023-02-18T13:33:57.742Z,12.10
2023-02-18T13:35:36.542Z,12.20
2023-02-18T13:37:17.342Z,12.10
2023-02-18T13:38:59.360Z,12.10
2023-02-18T13:40:34.303Z,12.00
2023-02-18T13:42:33.716Z,11.90
2023-02-18T13:44:31.091Z,11.80
2023-02-18T13:46:09.176Z,11.60
2023-02-18T13:47:44.930Z,11.30
2023-02-18T13:49:22.695Z,11.00
2023-02-18T13:51:01.644Z,10.90
2023-02-18T13:52:34.818Z,10.90
2023-02-18T13:54:19.990Z,10.80
2023-02-18T13:55:58.583Z,10.80
2023-02-18T13:57:32.070Z,10.80
2023-02-18T13:59:12.931Z,10.90
2023-02-18T14:00:51.141Z,11.00
2023-02-18T14:02:32.650Z,11.10
2023-02-18T14:04:49.293Z,11.10
2023-02-18T14:06:24.298Z,11.10
2023-02-18T14:08:12.616Z,11.10
2023-02-18T14:09:46.451Z,11.20
2023-02-18T14:11:39.245Z,11.30
2023-02-18T14:13:25.804Z,11.30
2023-02-18T14:15:00.033Z,11.30
2023-02-18T14:17:33.315Z,11.30
2023-02-18T14:19:27.886Z,11.30
2023-02-18T14:21:22.560Z,11.30
2023-02-18T14:22:55.879Z,11.40
2023-02-18T14:24:44.940Z,11.40
2023-02-18T14:26:24.277Z,11.40
2023-02-18T14:27:57.403Z,11.40
2023-02-18T14:29:32.432Z,11.40
2023-02-18T14:31:07.330Z,11.30
2023-02-18T14:32:41.453Z,11.20
2023-02-18T14:34:51.245Z,11.10
2023-02-18T14:36:33.183Z,11.10
2023-02-18T14:38:33.622Z,11.10
2023-02-18T14:40:34.738Z,11.10
2023-02-18T14:42:20.720Z,11.10
2023-02-18T14:44:17.698Z,11.10
2023-02-18T14:46:11.335Z,11.10
2023-02-18T14:48:02.561Z,11.00
2023-02-18T14:49:42.103Z,11.00
2023-02-18T14:51:17.926Z,10.90
2023-02-18T14:52:57.081Z,11.00
2023-02-18T14:54:32.196Z,10.90
2023-02-18T14:56:07.131Z,10.90
2023-02-18T14:57:45.667Z,10.90
2023-02-18T14:59:20.864Z,10.80
2023-02-18T15:00:54.012Z,10.80
2023-02-18T15:02:30.854Z,10.80
2023-02-18T15:04:05.051Z,10.80
2023-02-18T15:05:39.509Z,10.80
2023-02-18T15:07:13.604Z,10.70
2023-02-18T15:08:49.579Z,10.50
2023-02-18T15:10:22.899Z,10.50
2023-02-18T15:12:00.306Z,10.50
2023-02-18T15:13:36.143Z,10.40
2023-02-18T15:15:14.815Z,10.30
2023-02-18T15:16:49.483Z,10.20
2023-02-18T15:18:29.442Z,10.10
2023-02-18T15:20:08.081Z,10.00
2023-02-18T15:21:44.657Z,10.00
2023-02-18T15:23:18.543Z,10.00
2023-02-18T15:24:54.927Z,10.00
2023-02-18T15:26:28.048Z,10.00
2023-02-18T15:28:01.110Z,10.00
2023-02-18T15:29:36.643Z,10.00
2023-02-18T15:31:15.225Z,10.00
2023-02-18T15:32:52.320Z,10.00
2023-02-18T15:34:37.979Z,10.00
2023-02-18T15:36:15.586Z,10.00
2023-02-18T15:37:53.661Z,10.10
2023-02-18T15:39:27.227Z,10.10
2023-02-18T15:41:03.999Z,10.20
2023-02-18T15:42:38.327Z,10.20
2023-02-18T15:44:21.744Z,10.30
2023-02-18T15:45:57.837Z,10.30
2023-02-18T15:47:31.477Z,10.40
2023-02-18T15:49:09.089Z,10.40
2023-02-18T15:50:51.319Z,10.50
2023-02-18T15:52:27.368Z,10.60
2023-02-18T15:54:03.724Z,10.50
2023-02-18T15:55:39.411Z,10.50
2023-02-18T15:57:17.185Z,10.60
2023-02-18T15:58:50.316Z,10.60
2023-02-18T16:00:29.624Z,10.70
2023-02-18T16:02:20.757Z,10.70
2023-02-18T16:03:55.322Z,10.70
2023-02-18T16:05:30.246Z,10.70
2023-02-18T16:07:19.300Z,10.90
2023-02-18T16:08:59.549Z,10.90
2023-02-18T16:10:48.005Z,11.00
2023-02-18T16:12:29.831Z,11.00
2023-02-18T16:14:03.193Z,11.00
2023-02-18T16:15:40.893Z,11.00
2023-02-18T16:17:17.536Z,11.10
2023-02-18T16:18:50.644Z,11.10
2023-02-18T16:20:30.692Z,11.20
2023-02-18T16:22:07.109Z,11.20
2023-02-18T16:23:43.717Z,11.20
2023-02-18T16:25:22.363Z,11.10
2023-02-18T16:26:58.468Z,11.10
2023-02-18T16:28:35.280Z,11.10
2023-02-18T16:30:23.587Z,11.10
2023-02-18T16:31:56.784Z,11.10
2023-02-18T16:33:29.973Z,11.20
2023-02-18T16:35:03.613Z,11.20
2023-02-18T16:36:36.734Z,11.20
2023-02-18T16:38:15.468Z,11.20
2023-02-18T16:39:52.071Z,11.20
2023-02-18T16:41:25.449Z,11.20
2023-02-18T16:43:01.226Z,11.10
2023-02-18T16:44:35.627Z,11.20
2023-02-18T16:46:11.657Z,11.10
2023-02-18T16:47:47.054Z,11.10
2023-02-18T16:49:21.142Z,11.10
2023-02-18T16:50:54.627Z,11.10
2023-02-18T16:52:27.803Z,11.00
2023-02-18T16:54:00.910Z,11.00
2023-02-18T16:55:34.042Z,11.00
2023-02-18T16:57:07.090Z,11.00
2023-02-18T16:58:40.549Z,11.00
2023-02-18T17:00:17.892Z,11.00
2023-02-18T17:01:51.183Z,11.00
2023-02-18T17:03:24.243Z,10.90
2023-02-18T17:04:57.489Z,11.00
2023-02-18T17:06:30.960Z,11.00
2023-02-18T17:08:20.431Z,11.00
2023-02-18T17:09:53.486Z,11.10
2023-02-18T17:11:29.641Z,11.10
2023-02-18T17:13:02.721Z,11.10
2023-02-18T17:14:35.816Z,11.20
2023-02-18T17:16:12.383Z,11.10
2023-02-18T17:17:45.967Z,11.00
2023-02-18T17:19:19.127Z,11.00
2023-02-18T17:20:52.914Z,11.00
2023-02-18T17:22:26.016Z,11.00
2023-02-18T17:23:59.106Z,11.00
2023-02-18T17:25:35.580Z,10.90
2023-02-18T17:27:10.811Z,10.80
2023-02-18T17:28:43.892Z,10.70
2023-02-18T17:30:18.291Z,10.70
2023-02-18T17:31:56.787Z,10.70
